Churdan, IA (50050)

4:54 AM CDT on September 02, 2015 (GMT -0500)
HWY 175 | | Change Station
CLOSE
Current Station
Personal Weather Station
Location: Lohrville, IA
Elevation: 1150 ft
Nearby Weather Stations
Active Advisory: Flood Warning

Elev 1150 ft 42.27 °N, 94.54 °W | Updated 13 minutes ago

Overcast
Overcast
70.7 °F
Feels Like 70.7 °F
N
6.8
Wind Variable Wind from SW

Today
High -- | Low -- °F
--% Chance of Precip.
Yesterday
High -- | Low -- °F
Precip. -- in
6:44 AM 7:50 PM
Waning Gibbous, 81% visible
Pressure 29.92 in
Visibility 10.0 miles
Clouds Mostly Cloudy 8500 ft
Dew Point 67 °F
Humidity 88%
Rainfall 0.00 in
Snow Depth Not available.
UV 0 out of 12
Pollen 11.50 out of 12
Air Quality Not available.
Flu Activity Not available.
METAR KCIN 020935Z AUTO 17014KT 10SM BKN085 23/20 A2992 RMK AO2
Pressure 29.92 in
Visibility 10.0 miles
Clouds Mostly Cloudy 8500 ft
Dew Point 67 °F
Humidity 88%
Rainfall 0.00 in
Snow Depth Not available.
UV 0 out of 12
Pollen 11.50 out of 12
Air Quality Not available.
Flu Activity Not available.
METAR KCIN 020935Z AUTO 17014KT 10SM BKN085 23/20 A2992 RMK AO2

10-Day Weather Forecast

×

Almanac

Astronomy

Sep. 02, 2015 Rise Set
Actual Time
Civil Twilight
Nautical Twilight
Astronomical Twilight
Moon
Length of Visible Light
Length of Day
Tomorrow will be .
, % of the Moon is Illuminated

Today's Extremes

State Highs State Lows

Community

WunderPhotos

Upload Photos

1,851,731 photos uploaded!

WunderBlogs® & News

Nearby

Air Quality

  Air Quality AQ Index Pollutant
Not available.

Snow Depth

Station Depth Elevation

Earthquake Activity

City Distance Mag. Time & Date
Minimum magnitude displayed is 2.5.

Coastal Water Temperatures

Place Temperature

Stations

Nearby Weather Stations

Station Location Temp. Windchill Dew Point Humidity Wind Precip. Elev Updated Type
                   
Flood Warning
Statement as of 3:48 AM CDT on September 02, 2015

... Flood Warning remains in effect until this afternoon...

The Flood Warning continues for
the north Raccoon river near Perry... or from the Greene-Dallas
County line... to Adel.
* Until this afternoon.
* At 3:15 am Wednesday the stage was 15.6 feet... or 0.6 feet above
flood stage.
* Flood stage is 15.0 feet.
* Minor flooding is occurring and is forecast to continue.
* Forecast... continue falling and go below flood stage this
afternoon.
* Impact... at 15.0 feet... in Perry... farmland floods and the waste
water treatment facility is affected. Near Adel... the Fairgrounds
and Golf course are affected. Northwest of Adel... sportsman club
Road and Midland trail flood.


Lat... Lon 4159 9403 4186 9423 4186 9410 4161 9394
      4159 9403